sensor_id;sensor_type;location;lat;lon;timestamp;temperature;humidity
10276;DHT22;5183;51.190;6.820;2023-02-05T00:01:32;7.00;1.00
10276;DHT22;5183;51.190;6.820;2023-02-05T00:03:59;7.00;1.00
10276;DHT22;5183;51.190;6.820;2023-02-05T00:06:26;6.90;1.00
10276;DHT22;5183;51.190;6.820;2023-02-05T00:08:54;6.90;1.00
10276;DHT22;5183;51.190;6.820;2023-02-05T00:11:21;6.90;99.90
10276;DHT22;5183;51.190;6.820;2023-02-05T00:13:48;6.90;1.00
10276;DHT22;5183;51.190;6.820;2023-02-05T00:16:16;6.80;1.00
10276;DHT22;5183;51.190;6.820;2023-02-05T00:18:43;6.80;99.90
10276;DHT22;5183;51.190;6.820;2023-02-05T00:21:12;6.80;99.90
10276;DHT22;5183;51.190;6.820;2023-02-05T00:23:39;6.70;99.90
10276;DHT22;5183;51.190;6.820;2023-02-05T00:26:07;6.70;1.00
10276;DHT22;5183;51.190;6.820;2023-02-05T00:28:35;6.70;1.00
10276;DHT22;5183;51.190;6.820;2023-02-05T00:31:07;6.70;1.00
10276;DHT22;5183;51.190;6.820;2023-02-05T00:33:34;6.60;1.00
10276;DHT22;5183;51.190;6.820;2023-02-05T00:36:01;6.60;1.00
10276;DHT22;5183;51.190;6.820;2023-02-05T00:38:28;6.70;1.00
10276;DHT22;5183;51.190;6.820;2023-02-05T00:40:55;6.60;1.00
10276;DHT22;5183;51.190;6.820;2023-02-05T00:43:23;6.60;1.00
10276;DHT22;5183;51.190;6.820;2023-02-05T00:45:50;6.60;1.00
10276;DHT22;5183;51.190;6.820;2023-02-05T00:48:17;6.60;1.00
10276;DHT22;5183;51.190;6.820;2023-02-05T00:50:44;6.60;1.00
10276;DHT22;5183;51.190;6.820;2023-02-05T00:53:12;6.60;1.00
10276;DHT22;5183;51.190;6.820;2023-02-05T00:55:39;6.60;1.00
10276;DHT22;5183;51.190;6.820;2023-02-05T00:58:06;6.60;1.00
10276;DHT22;5183;51.190;6.820;2023-02-05T01:00:34;6.60;1.00
10276;DHT22;5183;51.190;6.820;2023-02-05T01:03:01;6.60;1.00
10276;DHT22;5183;51.190;6.820;2023-02-05T01:05:28;6.60;1.00
10276;DHT22;5183;51.190;6.820;2023-02-05T01:07:55;6.50;1.00
10276;DHT22;5183;51.190;6.820;2023-02-05T01:10:23;6.50;1.00
10276;DHT22;5183;51.190;6.820;2023-02-05T01:12:49;6.50;1.00
10276;DHT22;5183;51.190;6.820;2023-02-05T01:15:16;6.50;5.00
10276;DHT22;5183;51.190;6.820;2023-02-05T01:17:45;6.50;27.80
10276;DHT22;5183;51.190;6.820;2023-02-05T01:20:13;6.40;43.70
10276;DHT22;5183;51.190;6.820;2023-02-05T01:22:41;6.40;59.90
10276;DHT22;5183;51.190;6.820;2023-02-05T01:25:08;6.50;90.20
10276;DHT22;5183;51.190;6.820;2023-02-05T01:27:35;6.40;99.90
10276;DHT22;5183;51.190;6.820;2023-02-05T01:30:03;6.40;99.90
10276;DHT22;5183;51.190;6.820;2023-02-05T01:32:30;6.50;99.90
10276;DHT22;5183;51.190;6.820;2023-02-05T01:34:58;6.40;99.90
10276;DHT22;5183;51.190;6.820;2023-02-05T01:37:25;6.40;99.90
10276;DHT22;5183;51.190;6.820;2023-02-05T01:39:52;6.40;99.90
10276;DHT22;5183;51.190;6.820;2023-02-05T01:42:21;6.40;99.90
10276;DHT22;5183;51.190;6.820;2023-02-05T01:45:26;6.40;99.90
10276;DHT22;5183;51.190;6.820;2023-02-05T01:47:57;6.40;99.90
10276;DHT22;5183;51.190;6.820;2023-02-05T01:50:28;6.40;99.90
10276;DHT22;5183;51.190;6.820;2023-02-05T01:52:59;6.40;99.90
10276;DHT22;5183;51.190;6.820;2023-02-05T01:55:28;6.40;99.90
10276;DHT22;5183;51.190;6.820;2023-02-05T01:57:56;6.40;99.90
10276;DHT22;5183;51.190;6.820;2023-02-05T02:00:24;6.40;99.90
10276;DHT22;5183;51.190;6.820;2023-02-05T02:02:51;6.40;99.90
10276;DHT22;5183;51.190;6.820;2023-02-05T02:05:18;6.40;99.90
10276;DHT22;5183;51.190;6.820;2023-02-05T02:07:47;6.40;99.90
10276;DHT22;5183;51.190;6.820;2023-02-05T02:10:14;6.40;99.90
10276;DHT22;5183;51.190;6.820;2023-02-05T02:12:44;6.30;99.90
10276;DHT22;5183;51.190;6.820;2023-02-05T02:15:16;6.40;99.90
10276;DHT22;5183;51.190;6.820;2023-02-05T02:17:45;6.30;99.90
10276;DHT22;5183;51.190;6.820;2023-02-05T02:20:14;6.30;99.90
10276;DHT22;5183;51.190;6.820;2023-02-05T02:23:00;6.30;99.90
10276;DHT22;5183;51.190;6.820;2023-02-05T02:26:00;6.40;99.90
10276;DHT22;5183;51.190;6.820;2023-02-05T02:28:34;6.40;99.90
10276;DHT22;5183;51.190;6.820;2023-02-05T02:31:07;6.40;99.90
10276;DHT22;5183;51.190;6.820;2023-02-05T02:33:40;6.40;99.90
10276;DHT22;5183;51.190;6.820;2023-02-05T02:36:12;6.40;99.90
10276;DHT22;5183;51.190;6.820;2023-02-05T02:38:42;6.40;99.90
10276;DHT22;5183;51.190;6.820;2023-02-05T02:41:13;6.40;99.90
10276;DHT22;5183;51.190;6.820;2023-02-05T02:43:48;6.50;99.90
10276;DHT22;5183;51.190;6.820;2023-02-05T02:46:20;6.50;99.90
10276;DHT22;5183;51.190;6.820;2023-02-05T02:48:49;6.50;99.90
10276;DHT22;5183;51.190;6.820;2023-02-05T02:51:19;6.50;99.90
10276;DHT22;5183;51.190;6.820;2023-02-05T02:53:50;6.50;99.90
10276;DHT22;5183;51.190;6.820;2023-02-05T02:56:19;6.50;99.90
10276;DHT22;5183;51.190;6.820;2023-02-05T02:58:50;6.50;99.90
10276;DHT22;5183;51.190;6.820;2023-02-05T03:01:23;6.50;99.90
10276;DHT22;5183;51.190;6.820;2023-02-05T03:03:54;6.60;99.90
10276;DHT22;5183;51.190;6.820;2023-02-05T03:06:25;6.60;99.90
10276;DHT22;5183;51.190;6.820;2023-02-05T03:08:56;6.60;99.90
10276;DHT22;5183;51.190;6.820;2023-02-05T03:11:25;6.60;99.90
10276;DHT22;5183;51.190;6.820;2023-02-05T03:13:54;6.60;99.90
10276;DHT22;5183;51.190;6.820;2023-02-05T03:16:22;6.60;99.90
10276;DHT22;5183;51.190;6.820;2023-02-05T03:18:49;6.60;99.90
10276;DHT22;5183;51.190;6.820;2023-02-05T03:21:19;6.60;99.90
10276;DHT22;5183;51.190;6.820;2023-02-05T03:23:48;6.60;99.90
10276;DHT22;5183;51.190;6.820;2023-02-05T03:26:25;6.60;99.90
10276;DHT22;5183;51.190;6.820;2023-02-05T03:28:53;6.60;99.90
10276;DHT22;5183;51.190;6.820;2023-02-05T03:31:23;6.70;99.90
10276;DHT22;5183;51.190;6.820;2023-02-05T03:33:58;6.70;99.90
10276;DHT22;5183;51.190;6.820;2023-02-05T03:36:34;6.70;99.90
10276;DHT22;5183;51.190;6.820;2023-02-05T03:39:14;6.70;99.90
10276;DHT22;5183;51.190;6.820;2023-02-05T03:41:48;6.70;99.90
10276;DHT22;5183;51.190;6.820;2023-02-05T03:44:27;6.70;99.90
10276;DHT22;5183;51.190;6.820;2023-02-05T03:46:58;6.60;99.90
10276;DHT22;5183;51.190;6.820;2023-02-05T03:49:34;6.60;99.90
10276;DHT22;5183;51.190;6.820;2023-02-05T03:52:09;6.60;99.90
10276;DHT22;5183;51.190;6.820;2023-02-05T03:54:43;6.60;99.90
10276;DHT22;5183;51.190;6.820;2023-02-05T03:57:18;6.60;99.90
10276;DHT22;5183;51.190;6.820;2023-02-05T03:59:49;6.60;99.90
10276;DHT22;5183;51.190;6.820;2023-02-05T04:02:17;6.60;99.90
10276;DHT22;5183;51.190;6.820;2023-02-05T04:04:44;6.60;99.90
10276;DHT22;5183;51.190;6.820;2023-02-05T04:07:11;6.60;99.90
10276;DHT22;5183;51.190;6.820;2023-02-05T04:09:37;6.60;99.90
10276;DHT22;5183;51.190;6.820;2023-02-05T04:12:05;6.60;99.90
10276;DHT22;5183;51.190;6.820;2023-02-05T04:14:31;6.60;99.90
10276;DHT22;5183;51.190;6.820;2023-02-05T04:17:00;6.60;99.90
10276;DHT22;5183;51.190;6.820;2023-02-05T04:19:27;6.60;99.90
10276;DHT22;5183;51.190;6.820;2023-02-05T04:21:54;6.60;99.90
10276;DHT22;5183;51.190;6.820;2023-02-05T04:24:21;6.60;99.90
10276;DHT22;5183;51.190;6.820;2023-02-05T04:26:48;6.60;99.90
10276;DHT22;5183;51.190;6.820;2023-02-05T04:29:15;6.60;99.90
10276;DHT22;5183;51.190;6.820;2023-02-05T04:31:42;6.60;99.90
10276;DHT22;5183;51.190;6.820;2023-02-05T04:34:10;6.60;99.90
10276;DHT22;5183;51.190;6.820;2023-02-05T04:36:37;6.60;99.90
10276;DHT22;5183;51.190;6.820;2023-02-05T04:39:04;6.50;99.90
10276;DHT22;5183;51.190;6.820;2023-02-05T04:41:31;6.60;99.90
10276;DHT22;5183;51.190;6.820;2023-02-05T04:43:57;6.60;99.90
10276;DHT22;5183;51.190;6.820;2023-02-05T04:46:24;6.60;99.90
10276;DHT22;5183;51.190;6.820;2023-02-05T04:48:51;6.60;99.90
10276;DHT22;5183;51.190;6.820;2023-02-05T04:51:19;6.60;99.90
10276;DHT22;5183;51.190;6.820;2023-02-05T04:53:46;6.60;99.90
10276;DHT22;5183;51.190;6.820;2023-02-05T04:56:14;6.60;99.90
10276;DHT22;5183;51.190;6.820;2023-02-05T04:58:42;6.60;99.90
10276;DHT22;5183;51.190;6.820;2023-02-05T05:01:10;6.60;99.90
10276;DHT22;5183;51.190;6.820;2023-02-05T05:03:38;6.60;99.90
10276;DHT22;5183;51.190;6.820;2023-02-05T05:06:05;6.60;99.90
10276;DHT22;5183;51.190;6.820;2023-02-05T05:08:34;6.60;99.90
10276;DHT22;5183;51.190;6.820;2023-02-05T05:11:05;6.60;99.90
10276;DHT22;5183;51.190;6.820;2023-02-05T05:13:32;6.60;99.90
10276;DHT22;5183;51.190;6.820;2023-02-05T05:16:00;6.70;99.90
10276;DHT22;5183;51.190;6.820;2023-02-05T05:18:27;6.70;99.90
10276;DHT22;5183;51.190;6.820;2023-02-05T05:20:54;6.70;99.90
10276;DHT22;5183;51.190;6.820;2023-02-05T05:23:21;6.70;99.90
10276;DHT22;5183;51.190;6.820;2023-02-05T05:25:49;6.70;99.90
10276;DHT22;5183;51.190;6.820;2023-02-05T05:28:16;6.70;99.90
10276;DHT22;5183;51.190;6.820;2023-02-05T05:30:44;6.70;99.90
10276;DHT22;5183;51.190;6.820;2023-02-05T05:33:11;6.70;99.90
10276;DHT22;5183;51.190;6.820;2023-02-05T05:35:38;6.70;99.90
10276;DHT22;5183;51.190;6.820;2023-02-05T05:38:05;6.70;99.90
10276;DHT22;5183;51.190;6.820;2023-02-05T05:40:32;6.80;99.90
10276;DHT22;5183;51.190;6.820;2023-02-05T05:43:19;6.80;99.90
10276;DHT22;5183;51.190;6.820;2023-02-05T05:46:05;6.80;99.90
10276;DHT22;5183;51.190;6.820;2023-02-05T05:48:33;6.80;99.90
10276;DHT22;5183;51.190;6.820;2023-02-05T05:51:00;6.80;99.90
10276;DHT22;5183;51.190;6.820;2023-02-05T05:53:27;6.80;99.90
10276;DHT22;5183;51.190;6.820;2023-02-05T05:55:54;6.80;99.90
10276;DHT22;5183;51.190;6.820;2023-02-05T05:58:22;6.80;99.90
10276;DHT22;5183;51.190;6.820;2023-02-05T06:00:49;6.80;99.90
10276;DHT22;5183;51.190;6.820;2023-02-05T06:03:16;6.80;99.90
10276;DHT22;5183;51.190;6.820;2023-02-05T06:05:43;6.80;99.90
10276;DHT22;5183;51.190;6.820;2023-02-05T06:08:10;6.80;99.90
10276;DHT22;5183;51.190;6.820;2023-02-05T06:10:38;6.70;99.90
10276;DHT22;5183;51.190;6.820;2023-02-05T06:13:05;6.70;99.90
10276;DHT22;5183;51.190;6.820;2023-02-05T06:15:33;6.80;99.90
10276;DHT22;5183;51.190;6.820;2023-02-05T06:18:00;6.80;99.90
10276;DHT22;5183;51.190;6.820;2023-02-05T06:20:27;6.80;99.90
10276;DHT22;5183;51.190;6.820;2023-02-05T06:22:54;6.80;99.90
10276;DHT22;5183;51.190;6.820;2023-02-05T06:25:21;6.80;99.90
10276;DHT22;5183;51.190;6.820;2023-02-05T06:27:47;6.80;99.90
10276;DHT22;5183;51.190;6.820;2023-02-05T06:30:14;6.80;99.90
10276;DHT22;5183;51.190;6.820;2023-02-05T06:32:43;6.80;99.90
10276;DHT22;5183;51.190;6.820;2023-02-05T06:35:09;6.80;99.90
10276;DHT22;5183;51.190;6.820;2023-02-05T06:37:36;6.80;99.90
10276;DHT22;5183;51.190;6.820;2023-02-05T06:40:03;6.80;99.90
10276;DHT22;5183;51.190;6.820;2023-02-05T06:42:30;6.80;99.90
10276;DHT22;5183;51.190;6.820;2023-02-05T06:44:57;6.80;99.90
10276;DHT22;5183;51.190;6.820;2023-02-05T06:47:24;6.80;99.90
10276;DHT22;5183;51.190;6.820;2023-02-05T06:49:52;6.80;99.90
10276;DHT22;5183;51.190;6.820;2023-02-05T06:52:19;6.80;99.90
10276;DHT22;5183;51.190;6.820;2023-02-05T06:54:46;6.80;99.90
10276;DHT22;5183;51.190;6.820;2023-02-05T06:57:12;6.80;99.90
10276;DHT22;5183;51.190;6.820;2023-02-05T06:59:39;6.80;99.90
10276;DHT22;5183;51.190;6.820;2023-02-05T07:02:06;6.80;99.90
10276;DHT22;5183;51.190;6.820;2023-02-05T07:04:33;6.80;99.90
10276;DHT22;5183;51.190;6.820;2023-02-05T07:07:01;6.80;99.90
10276;DHT22;5183;51.190;6.820;2023-02-05T07:09:28;6.70;99.90
10276;DHT22;5183;51.190;6.820;2023-02-05T07:11:55;6.70;99.90
10276;DHT22;5183;51.190;6.820;2023-02-05T07:14:22;6.80;99.90
10276;DHT22;5183;51.190;6.820;2023-02-05T07:16:48;6.70;99.90
10276;DHT22;5183;51.190;6.820;2023-02-05T07:19:16;6.70;99.90
10276;DHT22;5183;51.190;6.820;2023-02-05T07:21:43;6.70;99.90
10276;DHT22;5183;51.190;6.820;2023-02-05T07:24:11;6.70;99.90
10276;DHT22;5183;51.190;6.820;2023-02-05T07:26:38;6.80;99.90
10276;DHT22;5183;51.190;6.820;2023-02-05T07:29:07;6.80;99.90
10276;DHT22;5183;51.190;6.820;2023-02-05T07:31:34;6.80;99.90
10276;DHT22;5183;51.190;6.820;2023-02-05T07:34:01;6.80;99.90
10276;DHT22;5183;51.190;6.820;2023-02-05T07:36:28;6.80;99.90
10276;DHT22;5183;51.190;6.820;2023-02-05T07:38:55;6.80;99.90
10276;DHT22;5183;51.190;6.820;2023-02-05T07:41:23;6.80;99.90
10276;DHT22;5183;51.190;6.820;2023-02-05T07:43:51;6.80;99.90
10276;DHT22;5183;51.190;6.820;2023-02-05T07:46:19;6.70;99.90
10276;DHT22;5183;51.190;6.820;2023-02-05T07:48:46;6.70;99.90
10276;DHT22;5183;51.190;6.820;2023-02-05T07:51:15;6.70;99.90
10276;DHT22;5183;51.190;6.820;2023-02-05T07:53:43;6.70;99.90
10276;DHT22;5183;51.190;6.820;2023-02-05T07:56:10;6.70;99.90
10276;DHT22;5183;51.190;6.820;2023-02-05T07:58:38;6.70;99.90
10276;DHT22;5183;51.190;6.820;2023-02-05T08:01:05;6.70;99.90
10276;DHT22;5183;51.190;6.820;2023-02-05T08:03:32;6.70;99.90
10276;DHT22;5183;51.190;6.820;2023-02-05T08:06:03;6.70;99.90
10276;DHT22;5183;51.190;6.820;2023-02-05T08:08:30;6.70;99.90
10276;DHT22;5183;51.190;6.820;2023-02-05T08:11:00;6.60;99.90
10276;DHT22;5183;51.190;6.820;2023-02-05T08:13:27;6.60;99.90
10276;DHT22;5183;51.190;6.820;2023-02-05T08:15:56;6.60;99.90
10276;DHT22;5183;51.190;6.820;2023-02-05T08:18:23;6.60;99.90
10276;DHT22;5183;51.190;6.820;2023-02-05T08:20:51;6.50;99.90
10276;DHT22;5183;51.190;6.820;2023-02-05T08:23:18;6.50;99.90
10276;DHT22;5183;51.190;6.820;2023-02-05T08:25:45;6.50;99.90
10276;DHT22;5183;51.190;6.820;2023-02-05T08:28:12;6.50;99.90
10276;DHT22;5183;51.190;6.820;2023-02-05T08:30:39;6.50;99.90
10276;DHT22;5183;51.190;6.820;2023-02-05T08:33:07;6.50;99.90
10276;DHT22;5183;51.190;6.820;2023-02-05T08:35:35;6.50;99.90
10276;DHT22;5183;51.190;6.820;2023-02-05T08:38:02;6.50;99.90
10276;DHT22;5183;51.190;6.820;2023-02-05T08:40:29;6.50;99.90
10276;DHT22;5183;51.190;6.820;2023-02-05T08:42:56;6.50;99.90
10276;DHT22;5183;51.190;6.820;2023-02-05T08:45:25;6.40;99.90
10276;DHT22;5183;51.190;6.820;2023-02-05T08:47:52;6.40;99.90
10276;DHT22;5183;51.190;6.820;2023-02-05T08:50:21;6.30;99.90
10276;DHT22;5183;51.190;6.820;2023-02-05T08:52:48;6.20;99.90
10276;DHT22;5183;51.190;6.820;2023-02-05T08:55:16;6.10;99.90
10276;DHT22;5183;51.190;6.820;2023-02-05T08:57:44;6.00;99.90
10276;DHT22;5183;51.190;6.820;2023-02-05T09:00:12;6.00;99.90
10276;DHT22;5183;51.190;6.820;2023-02-05T09:02:40;6.00;99.90
10276;DHT22;5183;51.190;6.820;2023-02-05T09:05:07;5.90;99.90
10276;DHT22;5183;51.190;6.820;2023-02-05T09:07:36;5.90;99.90
10276;DHT22;5183;51.190;6.820;2023-02-05T09:10:03;5.80;99.90
10276;DHT22;5183;51.190;6.820;2023-02-05T09:12:29;5.80;99.90
10276;DHT22;5183;51.190;6.820;2023-02-05T09:14:56;5.70;99.90
10276;DHT22;5183;51.190;6.820;2023-02-05T09:17:23;5.80;99.90
10276;DHT22;5183;51.190;6.820;2023-02-05T09:19:50;5.80;99.90
10276;DHT22;5183;51.190;6.820;2023-02-05T09:22:17;5.70;99.90
10276;DHT22;5183;51.190;6.820;2023-02-05T09:24:46;5.80;99.90
10276;DHT22;5183;51.190;6.820;2023-02-05T09:27:13;5.80;99.90
10276;DHT22;5183;51.190;6.820;2023-02-05T09:29:40;5.80;99.90
10276;DHT22;5183;51.190;6.820;2023-02-05T09:32:07;5.90;99.90
10276;DHT22;5183;51.190;6.820;2023-02-05T09:34:34;5.80;99.90
10276;DHT22;5183;51.190;6.820;2023-02-05T09:37:00;5.90;99.90
10276;DHT22;5183;51.190;6.820;2023-02-05T09:39:28;5.90;99.90
10276;DHT22;5183;51.190;6.820;2023-02-05T09:42:01;5.90;99.90
10276;DHT22;5183;51.190;6.820;2023-02-05T09:44:54;5.90;99.90
10276;DHT22;5183;51.190;6.820;2023-02-05T09:47:26;6.00;99.90
10276;DHT22;5183;51.190;6.820;2023-02-05T09:50:00;6.00;99.90
10276;DHT22;5183;51.190;6.820;2023-02-05T09:52:33;5.90;99.90
10276;DHT22;5183;51.190;6.820;2023-02-05T09:55:04;5.90;99.90
10276;DHT22;5183;51.190;6.820;2023-02-05T09:57:36;5.90;99.90
10276;DHT22;5183;51.190;6.820;2023-02-05T10:00:06;5.90;99.90
10276;DHT22;5183;51.190;6.820;2023-02-05T10:02:45;5.90;99.90
10276;DHT22;5183;51.190;6.820;2023-02-05T10:05:15;5.90;99.90
10276;DHT22;5183;51.190;6.820;2023-02-05T10:07:48;5.90;99.90
10276;DHT22;5183;51.190;6.820;2023-02-05T10:10:23;6.00;99.90
10276;DHT22;5183;51.190;6.820;2023-02-05T10:15:55;6.00;99.90
10276;DHT22;5183;51.190;6.820;2023-02-05T10:18:37;6.00;99.90
10276;DHT22;5183;51.190;6.820;2023-02-05T10:21:18;6.00;99.90
10276;DHT22;5183;51.190;6.820;2023-02-05T10:24:16;6.00;99.90
10276;DHT22;5183;51.190;6.820;2023-02-05T10:26:48;6.00;99.90
10276;DHT22;5183;51.190;6.820;2023-02-05T10:29:32;6.00;99.90
10276;DHT22;5183;51.190;6.820;2023-02-05T10:32:08;5.90;99.90
10276;DHT22;5183;51.190;6.820;2023-02-05T10:34:49;6.00;99.90
10276;DHT22;5183;51.190;6.820;2023-02-05T10:37:20;6.00;99.90
10276;DHT22;5183;51.190;6.820;2023-02-05T10:39:50;6.00;99.90
10276;DHT22;5183;51.190;6.820;2023-02-05T10:42:23;6.00;99.90
10276;DHT22;5183;51.190;6.820;2023-02-05T10:44:59;6.00;99.90
10276;DHT22;5183;51.190;6.820;2023-02-05T10:47:45;6.00;99.90
10276;DHT22;5183;51.190;6.820;2023-02-05T10:50:17;6.00;99.90
10276;DHT22;5183;51.190;6.820;2023-02-05T10:52:45;6.10;99.90
10276;DHT22;5183;51.190;6.820;2023-02-05T10:55:12;6.10;99.90
10276;DHT22;5183;51.190;6.820;2023-02-05T10:57:39;6.10;99.90
10276;DHT22;5183;51.190;6.820;2023-02-05T11:00:15;6.10;99.90
10276;DHT22;5183;51.190;6.820;2023-02-05T11:02:47;6.10;99.90
10276;DHT22;5183;51.190;6.820;2023-02-05T11:05:20;6.00;99.90
10276;DHT22;5183;51.190;6.820;2023-02-05T11:07:49;6.00;99.90
10276;DHT22;5183;51.190;6.820;2023-02-05T11:10:17;6.00;99.90
10276;DHT22;5183;51.190;6.820;2023-02-05T11:12:47;6.00;99.90
10276;DHT22;5183;51.190;6.820;2023-02-05T11:15:21;6.00;99.90
10276;DHT22;5183;51.190;6.820;2023-02-05T11:17:50;6.00;99.90
10276;DHT22;5183;51.190;6.820;2023-02-05T11:20:25;6.00;99.90
10276;DHT22;5183;51.190;6.820;2023-02-05T11:23:06;6.00;99.90
10276;DHT22;5183;51.190;6.820;2023-02-05T11:25:33;6.00;99.90
10276;DHT22;5183;51.190;6.820;2023-02-05T11:28:01;6.00;99.90
10276;DHT22;5183;51.190;6.820;2023-02-05T11:30:32;5.90;99.90
10276;DHT22;5183;51.190;6.820;2023-02-05T11:33:18;6.00;99.90
10276;DHT22;5183;51.190;6.820;2023-02-05T11:35:50;6.00;99.90
10276;DHT22;5183;51.190;6.820;2023-02-05T11:38:24;5.90;99.90
10276;DHT22;5183;51.190;6.820;2023-02-05T11:40:56;6.00;99.90
10276;DHT22;5183;51.190;6.820;2023-02-05T11:43:27;6.00;99.90
10276;DHT22;5183;51.190;6.820;2023-02-05T11:45:58;5.90;99.90
10276;DHT22;5183;51.190;6.820;2023-02-05T11:48:31;6.00;99.90
10276;DHT22;5183;51.190;6.820;2023-02-05T11:51:00;5.90;99.90
10276;DHT22;5183;51.190;6.820;2023-02-05T11:53:28;5.90;99.90
10276;DHT22;5183;51.190;6.820;2023-02-05T11:55:59;6.00;99.90
10276;DHT22;5183;51.190;6.820;2023-02-05T11:58:29;5.90;99.90
10276;DHT22;5183;51.190;6.820;2023-02-05T12:00:59;5.90;99.90
10276;DHT22;5183;51.190;6.820;2023-02-05T12:03:27;5.90;99.90
10276;DHT22;5183;51.190;6.820;2023-02-05T12:06:02;5.90;99.90
10276;DHT22;5183;51.190;6.820;2023-02-05T12:08:38;5.90;99.90
10276;DHT22;5183;51.190;6.820;2023-02-05T12:11:33;6.00;99.90
10276;DHT22;5183;51.190;6.820;2023-02-05T12:14:29;6.00;99.90
10276;DHT22;5183;51.190;6.820;2023-02-05T12:17:13;5.90;99.90
10276;DHT22;5183;51.190;6.820;2023-02-05T12:19:49;6.00;99.90
10276;DHT22;5183;51.190;6.820;2023-02-05T12:22:28;6.00;99.90
10276;DHT22;5183;51.190;6.820;2023-02-05T12:25:11;6.00;99.90
10276;DHT22;5183;51.190;6.820;2023-02-05T12:27:50;6.00;99.90
10276;DHT22;5183;51.190;6.820;2023-02-05T12:30:32;6.00;99.90
10276;DHT22;5183;51.190;6.820;2023-02-05T12:33:15;6.00;99.90
10276;DHT22;5183;51.190;6.820;2023-02-05T12:35:54;6.10;99.90
10276;DHT22;5183;51.190;6.820;2023-02-05T12:38:31;6.10;99.90
10276;DHT22;5183;51.190;6.820;2023-02-05T12:41:08;6.10;99.90
10276;DHT22;5183;51.190;6.820;2023-02-05T12:43:40;6.10;99.90
10276;DHT22;5183;51.190;6.820;2023-02-05T12:46:31;6.10;99.90
10276;DHT22;5183;51.190;6.820;2023-02-05T12:49:20;6.10;99.90
10276;DHT22;5183;51.190;6.820;2023-02-05T12:52:03;6.10;99.90
10276;DHT22;5183;51.190;6.820;2023-02-05T12:54:46;6.20;99.90
10276;DHT22;5183;51.190;6.820;2023-02-05T12:57:18;6.20;99.90
10276;DHT22;5183;51.190;6.820;2023-02-05T12:59:48;6.20;99.90
10276;DHT22;5183;51.190;6.820;2023-02-05T13:02:28;6.20;99.90
10276;DHT22;5183;51.190;6.820;2023-02-05T13:05:07;6.20;99.90
10276;DHT22;5183;51.190;6.820;2023-02-05T13:07:39;6.20;99.90
10276;DHT22;5183;51.190;6.820;2023-02-05T13:10:14;6.20;99.90
10276;DHT22;5183;51.190;6.820;2023-02-05T13:12:44;6.20;99.90
10276;DHT22;5183;51.190;6.820;2023-02-05T13:15:16;6.20;99.90
10276;DHT22;5183;51.190;6.820;2023-02-05T13:17:53;6.20;99.90
10276;DHT22;5183;51.190;6.820;2023-02-05T13:20:27;6.20;99.90
10276;DHT22;5183;51.190;6.820;2023-02-05T13:23:10;6.20;99.90
10276;DHT22;5183;51.190;6.820;2023-02-05T13:25:56;6.20;99.90
10276;DHT22;5183;51.190;6.820;2023-02-05T13:28:43;6.20;99.90
10276;DHT22;5183;51.190;6.820;2023-02-05T13:31:21;6.20;99.90
10276;DHT22;5183;51.190;6.820;2023-02-05T13:33:50;6.20;99.90
10276;DHT22;5183;51.190;6.820;2023-02-05T13:42:29;6.20;99.90
10276;DHT22;5183;51.190;6.820;2023-02-05T13:45:16;6.30;99.90
10276;DHT22;5183;51.190;6.820;2023-02-05T13:48:12;6.30;99.90
10276;DHT22;5183;51.190;6.820;2023-02-05T13:51:01;6.30;99.90
10276;DHT22;5183;51.190;6.820;2023-02-05T13:53:48;6.30;99.90
10276;DHT22;5183;51.190;6.820;2023-02-05T13:56:43;6.30;99.90
10276;DHT22;5183;51.190;6.820;2023-02-05T13:59:16;6.30;99.90
10276;DHT22;5183;51.190;6.820;2023-02-05T14:01:50;6.30;99.90
10276;DHT22;5183;51.190;6.820;2023-02-05T14:04:21;6.30;99.90
10276;DHT22;5183;51.190;6.820;2023-02-05T14:06:55;6.30;99.90
10276;DHT22;5183;51.190;6.820;2023-02-05T14:09:30;6.30;99.90
10276;DHT22;5183;51.190;6.820;2023-02-05T14:12:00;6.40;99.90
10276;DHT22;5183;51.190;6.820;2023-02-05T14:14:31;6.50;99.90
10276;DHT22;5183;51.190;6.820;2023-02-05T14:17:00;6.50;94.20
10276;DHT22;5183;51.190;6.820;2023-02-05T14:19:49;6.60;88.00
10276;DHT22;5183;51.190;6.820;2023-02-05T14:22:36;6.60;78.00
10276;DHT22;5183;51.190;6.820;2023-02-05T14:27:48;6.60;30.50
10276;DHT22;5183;51.190;6.820;2023-02-05T14:30:49;6.60;13.00
10276;DHT22;5183;51.190;6.820;2023-02-05T14:33:34;6.60;42.50
10276;DHT22;5183;51.190;6.820;2023-02-05T14:36:26;7.00;50.30
10276;DHT22;5183;51.190;6.820;2023-02-05T14:39:00;6.60;35.30
10276;DHT22;5183;51.190;6.820;2023-02-05T14:41:29;6.60;8.50
10276;DHT22;5183;51.190;6.820;2023-02-05T14:44:01;6.60;23.40
10276;DHT22;5183;51.190;6.820;2023-02-05T14:46:31;6.60;24.00
10276;DHT22;5183;51.190;6.820;2023-02-05T14:49:00;6.60;41.80
10276;DHT22;5183;51.190;6.820;2023-02-05T14:51:31;6.60;47.20
10276;DHT22;5183;51.190;6.820;2023-02-05T14:54:01;6.60;2.70
10276;DHT22;5183;51.190;6.820;2023-02-05T14:56:34;6.70;1.00
10276;DHT22;5183;51.190;6.820;2023-02-05T14:59:13;6.70;7.20
10276;DHT22;5183;51.190;6.820;2023-02-05T15:01:46;6.70;24.80
10276;DHT22;5183;51.190;6.820;2023-02-05T15:04:38;6.70;9.20
10276;DHT22;5183;51.190;6.820;2023-02-05T15:07:10;6.70;41.10
10276;DHT22;5183;51.190;6.820;2023-02-05T15:09:40;6.70;80.50
10276;DHT22;5183;51.190;6.820;2023-02-05T15:12:31;6.70;99.90
10276;DHT22;5183;51.190;6.820;2023-02-05T15:15:25;6.60;99.90
10276;DHT22;5183;51.190;6.820;2023-02-05T15:17:55;6.60;99.90
10276;DHT22;5183;51.190;6.820;2023-02-05T15:20:28;6.50;99.90
10276;DHT22;5183;51.190;6.820;2023-02-05T15:23:24;6.60;99.90
10276;DHT22;5183;51.190;6.820;2023-02-05T15:25:59;6.50;99.90
10276;DHT22;5183;51.190;6.820;2023-02-05T15:28:31;6.60;99.90
10276;DHT22;5183;51.190;6.820;2023-02-05T15:31:19;6.70;99.90
10276;DHT22;5183;51.190;6.820;2023-02-05T15:33:58;6.70;85.50
10276;DHT22;5183;51.190;6.820;2023-02-05T15:36:31;6.80;1.00
10276;DHT22;5183;51.190;6.820;2023-02-05T15:39:15;6.90;2.40
10276;DHT22;5183;51.190;6.820;2023-02-05T15:41:46;7.10;1.00
10276;DHT22;5183;51.190;6.820;2023-02-05T15:44:20;7.00;1.00
10276;DHT22;5183;51.190;6.820;2023-02-05T15:46:48;7.00;1.00
10276;DHT22;5183;51.190;6.820;2023-02-05T15:49:16;7.00;1.00
10276;DHT22;5183;51.190;6.820;2023-02-05T15:51:44;6.90;1.00
10276;DHT22;5183;51.190;6.820;2023-02-05T15:54:16;6.90;1.00
10276;DHT22;5183;51.190;6.820;2023-02-05T15:56:48;6.80;26.30
10276;DHT22;5183;51.190;6.820;2023-02-05T15:59:18;6.80;4.60
10276;DHT22;5183;51.190;6.820;2023-02-05T16:01:49;6.70;43.00
10276;DHT22;5183;51.190;6.820;2023-02-05T16:04:23;6.50;82.00
10276;DHT22;5183;51.190;6.820;2023-02-05T16:06:52;6.50;98.10
10276;DHT22;5183;51.190;6.820;2023-02-05T16:09:21;6.40;89.80
10276;DHT22;5183;51.190;6.820;2023-02-05T16:11:49;6.40;93.60
10276;DHT22;5183;51.190;6.820;2023-02-05T16:14:18;6.40;99.90
10276;DHT22;5183;51.190;6.820;2023-02-05T16:16:56;6.30;99.90
10276;DHT22;5183;51.190;6.820;2023-02-05T16:19:30;6.40;99.90
10276;DHT22;5183;51.190;6.820;2023-02-05T16:22:00;6.40;99.90
10276;DHT22;5183;51.190;6.820;2023-02-05T16:24:30;6.40;98.80
10276;DHT22;5183;51.190;6.820;2023-02-05T16:27:01;6.30;99.90
10276;DHT22;5183;51.190;6.820;2023-02-05T16:29:32;6.30;99.90
10276;DHT22;5183;51.190;6.820;2023-02-05T16:32:04;6.30;99.90
10276;DHT22;5183;51.190;6.820;2023-02-05T16:34:35;6.30;99.90
10276;DHT22;5183;51.190;6.820;2023-02-05T16:37:07;6.30;99.90
10276;DHT22;5183;51.190;6.820;2023-02-05T16:39:38;6.30;99.90
10276;DHT22;5183;51.190;6.820;2023-02-05T16:48:22;6.30;99.90